Time;durP1;ratioP1;P1;durP2;ratioP2;P2;SDS_P1;SDS_P2;PMS_P1;PMS_P2;Temp;Humidity;BMP_temperature;BMP_pressure;BME280_temperature;BME280_humidity;BME280_pressure;Samples;Min_cycle;Max_cycle;Signal;HPM_P1;HPM_P2
2023/11/28 00:00:32;;;;;;;16.20;14.50;;;;;;;;;;5038527;28;20045;-60
2023/11/28 00:02:58;;;;;;;15.98;14.27;;;;;;;;;;5039620;28;20080;-57
2023/11/28 00:05:24;;;;;;;15.20;13.50;;;;;;;;;;5039672;28;20082;-61
2023/11/28 00:07:50;;;;;;;15.75;14.05;;;;;;;;;;5039123;28;20044;-60
2023/11/28 00:10:16;;;;;;;15.55;13.85;;;;;;;;;;5040017;28;20385;-59
2023/11/28 00:12:42;;;;;;;15.57;13.88;;;;;;;;;;5036805;28;20550;-62
2023/11/28 00:15:10;;;;;;;15.63;13.93;;;;;;;;;;5024554;28;20071;-57
2023/11/28 00:17:36;;;;;;;15.82;14.13;;;;;;;;;;5079470;22;20056;-50
2023/11/28 00:20:02;;;;;;;16.00;14.30;;;;;;;;;;5070360;28;20040;-48
2023/11/28 00:22:28;;;;;;;15.45;13.75;;;;;;;;;;5071555;28;20397;-49
2023/11/28 00:24:54;;;;;;;15.55;13.85;;;;;;;;;;5071003;28;20017;-54
2023/11/28 00:27:20;;;;;;;15.63;13.93;;;;;;;;;;5070269;28;20039;-54
2023/11/28 00:29:46;;;;;;;15.35;13.65;;;;;;;;;;5071443;28;20025;-51
2023/11/28 00:32:12;;;;;;;15.60;13.90;;;;;;;;;;5071078;28;20028;-52
2023/11/28 00:34:38;;;;;;;15.90;14.20;;;;;;;;;;5070315;28;20032;-48
2023/11/28 00:37:04;;;;;;;16.67;14.88;;;;;;;;;;5072471;28;20017;-47
2023/11/28 00:39:30;;;;;;;15.90;14.20;;;;;;;;;;5072286;28;20035;-50
2023/11/28 00:41:56;;;;;;;15.82;14.13;;;;;;;;;;5070828;28;20028;-50
2023/11/28 00:44:22;;;;;;;15.52;13.82;;;;;;;;;;5072010;28;20379;-49
2023/11/28 00:46:48;;;;;;;15.43;13.70;;;;;;;;;;5071098;28;20025;-51
2023/11/28 00:49:14;;;;;;;15.70;14.00;;;;;;;;;;5072237;28;20021;-49
2023/11/28 00:51:44;;;;;;;15.57;13.88;;;;;;;;;;5070434;28;20486;-50
2023/11/28 00:54:10;;;;;;;15.65;13.95;;;;;;;;;;5072329;28;20029;-48
2023/11/28 00:56:36;;;;;;;16.02;14.32;;;;;;;;;;5072008;28;20028;-52
2023/11/28 00:59:02;;;;;;;15.48;13.77;;;;;;;;;;5070716;28;20028;-51
2023/11/28 01:01:28;;;;;;;15.75;14.05;;;;;;;;;;5071512;28;20021;-54
2023/11/28 01:03:54;;;;;;;15.50;13.80;;;;;;;;;;5070459;28;20024;-53
2023/11/28 01:06:20;;;;;;;15.70;14.00;;;;;;;;;;5070777;28;20033;-54
2023/11/28 01:08:46;;;;;;;15.48;13.77;;;;;;;;;;5071839;28;20498;-51
2023/11/28 01:11:12;;;;;;;15.40;13.50;;;;;;;;;;5071192;28;20150;-55
2023/11/28 01:13:38;;;;;;;15.40;13.70;;;;;;;;;;5071887;28;20016;-49
2023/11/28 01:16:04;;;;;;;15.70;14.00;;;;;;;;;;5071828;28;20450;-52
2023/11/28 01:18:30;;;;;;;15.70;13.60;;;;;;;;;;5071519;28;20112;-50
2023/11/28 01:20:56;;;;;;;15.40;13.60;;;;;;;;;;5070784;28;20086;-53
2023/11/28 01:23:22;;;;;;;15.13;13.38;;;;;;;;;;5071657;28;20025;-50
2023/11/28 01:25:48;;;;;;;15.52;13.80;;;;;;;;;;5071500;28;20033;-56
2023/11/28 01:28:14;;;;;;;15.40;13.57;;;;;;;;;;5070247;28;20032;-52
2023/11/28 01:30:40;;;;;;;15.30;13.45;;;;;;;;;;5070708;28;20048;-51
2023/11/28 01:33:06;;;;;;;15.45;13.75;;;;;;;;;;5070736;28;20044;-52
2023/11/28 01:35:33;;;;;;;15.43;13.73;;;;;;;;;;5071478;28;20439;-50
2023/11/28 01:37:59;;;;;;;15.50;13.80;;;;;;;;;;5071411;28;20032;-51
2023/11/28 01:40:25;;;;;;;15.40;13.60;;;;;;;;;;5070908;28;20027;-49
2023/11/28 01:42:51;;;;;;;15.30;13.50;;;;;;;;;;5071289;28;20533;-49
2023/11/28 01:45:21;;;;;;;15.50;13.80;;;;;;;;;;5071533;28;20025;-49
2023/11/28 01:47:47;;;;;;;16.80;15.00;;;;;;;;;;5071249;28;20371;-50
2023/11/28 01:50:13;;;;;;;15.48;13.77;;;;;;;;;;5070372;28;20028;-52
2023/11/28 01:52:39;;;;;;;15.32;13.55;;;;;;;;;;5071068;28;20012;-48
2023/11/28 01:55:06;;;;;;;15.70;13.45;;;;;;;;;;5071024;28;20474;-53
2023/11/28 01:57:33;;;;;;;15.30;13.50;;;;;;;;;;5070858;28;20067;-51
2023/11/28 02:00:00;;;;;;;15.20;13.23;;;;;;;;;;5069055;28;20482;-52
2023/11/28 02:02:27;;;;;;;19.52;14.00;;;;;;;;;;5070061;28;20166;-55
2023/11/28 02:04:53;;;;;;;15.98;13.95;;;;;;;;;;5069815;28;20108;-51
2023/11/28 02:07:19;;;;;;;15.20;13.02;;;;;;;;;;5070512;28;20032;-51
2023/11/28 02:09:45;;;;;;;15.30;13.20;;;;;;;;;;5069334;28;20078;-53
2023/11/28 02:12:11;;;;;;;15.30;13.40;;;;;;;;;;5068945;28;20021;-51
2023/11/28 02:14:44;;;;;;;15.10;12.93;;;;;;;;;;5070051;28;20024;-52
2023/11/28 02:17:10;;;;;;;15.20;13.27;;;;;;;;;;5070363;28;20040;-55
2023/11/28 02:19:36;;;;;;;15.68;13.98;;;;;;;;;;5069138;28;20025;-54
2023/11/28 02:22:02;;;;;;;15.20;13.10;;;;;;;;;;5070034;28;20032;-54
2023/11/28 02:24:29;;;;;;;15.40;13.30;;;;;;;;;;5070538;28;20020;-54
2023/11/28 02:26:55;;;;;;;15.38;13.25;;;;;;;;;;5070486;28;20411;-55
2023/11/28 02:29:21;;;;;;;15.10;13.00;;;;;;;;;;5070318;28;20078;-50
2023/11/28 02:31:48;;;;;;;15.80;13.52;;;;;;;;;;5070037;28;20092;-50
2023/11/28 02:34:14;;;;;;;15.00;12.65;;;;;;;;;;5070706;28;20021;-51
2023/11/28 02:36:40;;;;;;;15.13;13.00;;;;;;;;;;5070769;28;20391;-53
2023/11/28 02:39:06;;;;;;;14.80;12.02;;;;;;;;;;5070704;28;20020;-49
2023/11/28 02:41:32;;;;;;;14.90;12.30;;;;;;;;;;5069826;28;20062;-51
2023/11/28 02:44:00;;;;;;;14.95;12.45;;;;;;;;;;5070294;28;20048;-51
2023/11/28 02:46:26;;;;;;;15.65;13.45;;;;;;;;;;5069883;28;20017;-54
2023/11/28 02:48:52;;;;;;;15.00;12.70;;;;;;;;;;5070261;28;20082;-50
2023/11/28 02:51:20;;;;;;;15.27;12.63;;;;;;;;;;5069160;28;20017;-52
2023/11/28 02:53:46;;;;;;;15.85;13.18;;;;;;;;;;5070170;28;20024;-51
2023/11/28 02:56:12;;;;;;;14.90;12.40;;;;;;;;;;5068867;28;20060;-49
2023/11/28 02:58:38;;;;;;;14.98;12.50;;;;;;;;;;5069967;28;20024;-53
2023/11/28 03:01:04;;;;;;;14.93;12.60;;;;;;;;;;5068035;28;20024;-51
2023/11/28 03:03:30;;;;;;;14.90;12.45;;;;;;;;;;5069944;28;20017;-53
2023/11/28 03:05:56;;;;;;;15.00;12.50;;;;;;;;;;5069942;28;20667;-51
2023/11/28 03:08:22;;;;;;;15.57;12.55;;;;;;;;;;5069949;28;20055;-50
2023/11/28 03:10:48;;;;;;;15.00;12.70;;;;;;;;;;5069236;28;20031;-53
2023/11/28 03:13:14;;;;;;;15.07;12.75;;;;;;;;;;5069955;28;20069;-50
2023/11/28 03:15:40;;;;;;;14.70;11.73;;;;;;;;;;5070032;28;20066;-52
2023/11/28 03:18:08;;;;;;;15.05;12.55;;;;;;;;;;5069889;28;20033;-49
2023/11/28 03:20:34;;;;;;;14.70;11.65;;;;;;;;;;5068228;28;20086;-54
2023/11/28 03:23:00;;;;;;;22.98;18.17;;;;;;;;;;5069938;28;20081;-54
2023/11/28 03:25:26;;;;;;;15.32;13.07;;;;;;;;;;5070538;28;20421;-55
2023/11/28 03:27:52;;;;;;;14.80;11.95;;;;;;;;;;5073649;28;20104;-52
2023/11/28 03:30:21;;;;;;;16.48;13.13;;;;;;;;;;5073429;28;20052;-49
2023/11/28 03:32:47;;;;;;;14.68;11.70;;;;;;;;;;5074053;28;20023;-53
2023/11/28 03:35:13;;;;;;;14.80;11.77;;;;;;;;;;5074089;28;20025;-52
2023/11/28 03:37:39;;;;;;;14.60;11.40;;;;;;;;;;5074032;28;20103;-54
2023/11/28 03:40:06;;;;;;;14.60;11.40;;;;;;;;;;5073249;28;20131;-56
2023/11/28 03:42:32;;;;;;;16.98;12.05;;;;;;;;;;5072364;28;20034;-52
2023/11/28 03:44:58;;;;;;;16.15;13.13;;;;;;;;;;5073543;28;20036;-52
2023/11/28 03:47:24;;;;;;;15.23;11.50;;;;;;;;;;5073307;28;20020;-55
2023/11/28 03:49:50;;;;;;;14.60;11.20;;;;;;;;;;5073261;28;20506;-54
2023/11/28 03:52:16;;;;;;;15.35;11.10;;;;;;;;;;5071576;28;20028;-51
2023/11/28 03:54:42;;;;;;;14.27;10.35;;;;;;;;;;5073628;28;20028;-51
2023/11/28 03:57:08;;;;;;;14.10;9.95;;;;;;;;;;5073504;28;20029;-51
2023/11/28 03:59:34;;;;;;;14.00;9.77;;;;;;;;;;5071950;28;20085;-53
2023/11/28 04:02:00;;;;;;;14.10;9.80;;;;;;;;;;5072797;28;20524;-50
2023/11/28 04:04:26;;;;;;;14.20;9.77;;;;;;;;;;5073230;28;20024;-49
2023/11/28 04:06:52;;;;;;;15.65;10.10;;;;;;;;;;5071914;28;20025;-48
2023/11/28 04:09:19;;;;;;;14.02;9.80;;;;;;;;;;5073019;28;20027;-49
2023/11/28 04:11:45;;;;;;;13.80;9.27;;;;;;;;;;5071446;28;20112;-48
2023/11/28 04:14:11;;;;;;;14.00;9.32;;;;;;;;;;5073187;28;20089;-51
2023/11/28 04:16:37;;;;;;;14.48;9.32;;;;;;;;;;5071729;28;20028;-50
2023/11/28 04:19:04;;;;;;;13.80;9.10;;;;;;;;;;5073023;28;20558;-50
2023/11/28 04:21:29;;;;;;;13.73;9.05;;;;;;;;;;5072296;28;20036;-54
2023/11/28 04:23:55;;;;;;;13.60;8.68;;;;;;;;;;5073135;28;20406;-52
2023/11/28 04:26:22;;;;;;;15.23;10.13;;;;;;;;;;5072791;28;20024;-50
2023/11/28 04:28:48;;;;;;;14.10;9.23;;;;;;;;;;5072999;28;20023;-50
2023/11/28 04:31:20;;;;;;;13.77;8.75;;;;;;;;;;5072303;28;20021;-50
2023/11/28 04:33:46;;;;;;;13.90;8.90;;;;;;;;;;5073018;28;20082;-48
2023/11/28 04:36:14;;;;;;;14.52;9.25;;;;;;;;;;5072981;28;20449;-52
2023/11/28 04:38:40;;;;;;;13.57;8.65;;;;;;;;;;5071856;28;20535;-49
2023/11/28 04:41:09;;;;;;;13.48;8.57;;;;;;;;;;5070046;28;20032;-53
2023/11/28 04:43:35;;;;;;;13.63;8.73;;;;;;;;;;5072939;28;20052;-48
2023/11/28 04:46:01;;;;;;;13.70;8.90;;;;;;;;;;5072569;28;20105;-53
2023/11/28 04:48:27;;;;;;;13.68;8.90;;;;;;;;;;5071164;28;20062;-52
2023/11/28 04:50:53;;;;;;;14.18;9.82;;;;;;;;;;5071951;28;20023;-52
2023/11/28 04:53:19;;;;;;;13.70;8.75;;;;;;;;;;5071200;28;20020;-51
2023/11/28 04:55:45;;;;;;;13.60;8.60;;;;;;;;;;5072339;28;20158;-56
2023/11/28 04:58:11;;;;;;;14.00;9.20;;;;;;;;;;5072278;28;20099;-53
2023/11/28 05:00:37;;;;;;;13.88;8.73;;;;;;;;;;5071682;28;20439;-55
2023/11/28 05:03:03;;;;;;;13.65;8.90;;;;;;;;;;5072319;28;20020;-51
2023/11/28 05:05:29;;;;;;;13.68;9.00;;;;;;;;;;5072234;28;20505;-52
2023/11/28 05:07:55;;;;;;;13.70;9.00;;;;;;;;;;5072072;28;20028;-50
2023/11/28 05:10:21;;;;;;;13.70;9.00;;;;;;;;;;5069989;28;20033;-53
2023/11/28 05:12:47;;;;;;;13.70;9.00;;;;;;;;;;5072101;28;20376;-54
2023/11/28 05:15:13;;;;;;;14.05;9.57;;;;;;;;;;5070594;28;20024;-54
2023/11/28 05:17:39;;;;;;;13.57;8.55;;;;;;;;;;5071744;28;20033;-49
2023/11/28 05:20:05;;;;;;;15.25;10.68;;;;;;;;;;5071170;28;20028;-52
2023/11/28 05:22:31;;;;;;;14.10;9.20;;;;;;;;;;5071878;28;20143;-55
2023/11/28 05:24:57;;;;;;;13.50;8.60;;;;;;;;;;5072343;28;20493;-54
2023/11/28 05:27:24;;;;;;;13.85;8.63;;;;;;;;;;5071771;28;20147;-57
2023/11/28 05:29:50;;;;;;;17.67;9.80;;;;;;;;;;5071402;28;20045;-51
2023/11/28 05:32:16;;;;;;;13.70;8.65;;;;;;;;;;5071079;28;20061;-54
2023/11/28 05:34:42;;;;;;;15.48;9.93;;;;;;;;;;5071441;28;20107;-54
2023/11/28 05:37:08;;;;;;;13.27;8.00;;;;;;;;;;5071280;28;20059;-51
2023/11/28 05:39:34;;;;;;;13.32;8.10;;;;;;;;;;5071232;28;20059;-53
2023/11/28 05:42:00;;;;;;;13.00;7.60;;;;;;;;;;5070776;28;20656;-54
2023/11/28 05:44:26;;;;;;;13.60;8.48;;;;;;;;;;5071077;28;20032;-50
2023/11/28 05:46:52;;;;;;;13.27;8.00;;;;;;;;;;5069858;28;20035;-51
2023/11/28 05:49:17;;;;;;;13.75;8.15;;;;;;;;;;5069639;28;20444;-55
2023/11/28 05:51:43;;;;;;;13.10;8.00;;;;;;;;;;5070734;28;20150;-51
2023/11/28 05:54:10;;;;;;;13.25;8.00;;;;;;;;;;5071447;28;20376;-52
2023/11/28 05:56:36;;;;;;;13.40;8.00;;;;;;;;;;5070890;28;20024;-51
2023/11/28 05:59:02;;;;;;;13.30;7.90;;;;;;;;;;5069526;28;20186;-53
2023/11/28 06:01:28;;;;;;;11.55;6.72;;;;;;;;;;5070278;28;20028;-56
2023/11/28 06:03:55;;;;;;;11.38;6.60;;;;;;;;;;5070952;28;20032;-52
2023/11/28 06:06:21;;;;;;;12.23;7.07;;;;;;;;;;5069793;28;20410;-49
2023/11/28 06:08:47;;;;;;;15.57;7.82;;;;;;;;;;5070771;28;20025;-51
2023/11/28 06:11:13;;;;;;;11.95;7.68;;;;;;;;;;5068970;28;20451;-52
2023/11/28 06:13:39;;;;;;;12.30;7.43;;;;;;;;;;5070399;28;20020;-53
2023/11/28 06:16:06;;;;;;;11.25;6.60;;;;;;;;;;5070318;28;20032;-50
2023/11/28 06:18:32;;;;;;;13.70;7.75;;;;;;;;;;5098038;22;20060;-60
2023/11/28 06:20:58;;;;;;;11.27;6.57;;;;;;;;;;5078532;28;20111;-61
2023/11/28 06:23:24;;;;;;;11.13;6.50;;;;;;;;;;5079486;28;20048;-61
2023/11/28 06:25:50;;;;;;;10.80;6.30;;;;;;;;;;5079733;28;20264;-59
2023/11/28 06:28:16;;;;;;;11.25;6.60;;;;;;;;;;5079561;28;20112;-61
2023/11/28 06:30:43;;;;;;;11.15;6.50;;;;;;;;;;5078510;28;20126;-59
2023/11/28 06:33:09;;;;;;;10.82;6.32;;;;;;;;;;5078606;28;20375;-58
2023/11/28 06:35:36;;;;;;;12.68;6.93;;;;;;;;;;5079966;28;20028;-59
2023/11/28 06:38:02;;;;;;;11.82;6.90;;;;;;;;;;5078574;28;20092;-61
2023/11/28 06:40:28;;;;;;;10.73;6.28;;;;;;;;;;5077949;28;20024;-62
2023/11/28 06:42:57;;;;;;;11.50;6.68;;;;;;;;;;5079200;28;20352;-58
2023/11/28 06:45:23;;;;;;;11.40;6.95;;;;;;;;;;5079308;28;20183;-61
2023/11/28 06:47:49;;;;;;;11.05;6.50;;;;;;;;;;5078950;28;20082;-61
2023/11/28 06:50:15;;;;;;;11.48;6.70;;;;;;;;;;5077416;28;20025;-61
2023/11/28 06:52:41;;;;;;;11.10;6.50;;;;;;;;;;5076926;28;20029;-59
2023/11/28 06:55:08;;;;;;;11.27;6.60;;;;;;;;;;5078930;28;20059;-61
2023/11/28 06:57:35;;;;;;;11.70;6.80;;;;;;;;;;5076897;28;20032;-59
2023/11/28 07:00:01;;;;;;;11.40;6.80;;;;;;;;;;5077338;28;20025;-62
2023/11/28 07:02:27;;;;;;;10.88;6.32;;;;;;;;;;5077480;28;20040;-61
2023/11/28 07:04:53;;;;;;;11.00;6.40;;;;;;;;;;5079121;28;20024;-62
2023/11/28 07:07:19;;;;;;;11.02;6.43;;;;;;;;;;5078498;28;20401;-61
2023/11/28 07:09:47;;;;;;;11.10;6.50;;;;;;;;;;5078564;28;20048;-61
2023/11/28 07:12:13;;;;;;;;;;;;;;;;;;5078822;28;20082;-61
2023/11/28 07:14:39;;;;;;;12.13;7.10;;;;;;;;;;5077829;28;19960;-61
2023/11/28 07:17:06;;;;;;;12.18;6.90;;;;;;;;;;5079028;28;20521;-58
2023/11/28 07:19:32;;;;;;;11.30;6.70;;;;;;;;;;5078445;28;20039;-60
2023/11/28 07:21:58;;;;;;;11.60;6.78;;;;;;;;;;5076937;28;20064;-56
2023/11/28 07:24:24;;;;;;;10.88;6.35;;;;;;;;;;5078257;28;20100;-61
2023/11/28 07:26:50;;;;;;;12.65;7.88;;;;;;;;;;5077871;28;20501;-61
2023/11/28 07:29:16;;;;;;;10.45;6.13;;;;;;;;;;5077367;28;20031;-54
2023/11/28 07:31:42;;;;;;;12.73;7.30;;;;;;;;;;5076678;28;20025;-59
2023/11/28 07:34:08;;;;;;;11.65;6.80;;;;;;;;;;5077457;28;20024;-58
2023/11/28 07:36:34;;;;;;;11.38;6.70;;;;;;;;;;5078585;28;20398;-61
2023/11/28 07:39:00;;;;;;;12.15;7.10;;;;;;;;;;5077118;28;20048;-58
2023/11/28 07:41:26;;;;;;;11.50;6.70;;;;;;;;;;5075203;28;20036;-59
2023/11/28 07:43:53;;;;;;;11.25;6.55;;;;;;;;;;5079379;28;20092;-61
2023/11/28 07:46:19;;;;;;;11.90;7.10;;;;;;;;;;5080030;28;20028;-61
2023/11/28 07:48:45;;;;;;;11.88;7.10;;;;;;;;;;5080633;28;20044;-63
2023/11/28 07:51:11;;;;;;;13.70;7.10;;;;;;;;;;5078991;28;20532;-62
2023/11/28 07:53:37;;;;;;;11.57;6.75;;;;;;;;;;5079881;28;20119;-61
2023/11/28 07:56:03;;;;;;;11.40;6.63;;;;;;;;;;5078150;28;20017;-59
2023/11/28 07:58:30;;;;;;;11.95;7.13;;;;;;;;;;5079142;28;20029;-61
2023/11/28 08:00:56;;;;;;;11.52;6.80;;;;;;;;;;5078404;28;20243;-61
2023/11/28 08:03:22;;;;;;;11.55;6.75;;;;;;;;;;5079295;28;20033;-62
2023/11/28 08:05:48;;;;;;;11.75;6.80;;;;;;;;;;5080382;28;20032;-61
2023/11/28 08:08:15;;;;;;;11.90;7.00;;;;;;;;;;5079272;28;20036;-60
2023/11/28 08:10:42;;;;;;;11.85;6.95;;;;;;;;;;5079273;28;20020;-63
2023/11/28 08:13:07;;;;;;;12.32;7.40;;;;;;;;;;5081093;28;20091;-62
2023/11/28 08:15:34;;;;;;;12.07;7.43;;;;;;;;;;5083972;28;20016;-58
2023/11/28 08:18:00;;;;;;;12.27;7.13;;;;;;;;;;5083323;28;20036;-61
2023/11/28 08:20:26;;;;;;;12.80;7.40;;;;;;;;;;5082439;28;20032;-62
2023/11/28 08:22:52;;;;;;;12.02;7.00;;;;;;;;;;5081778;28;20137;-60
2023/11/28 08:25:18;;;;;;;12.23;7.10;;;;;;;;;;5083130;28;20033;-62
2023/11/28 08:27:44;;;;;;;12.70;7.50;;;;;;;;;;5083364;28;20039;-61
2023/11/28 08:30:11;;;;;;;12.95;7.55;;;;;;;;;;5082474;28;20505;-60
2023/11/28 08:32:37;;;;;;;12.80;7.45;;;;;;;;;;5081547;28;20016;-60
2023/11/28 08:35:03;;;;;;;15.07;10.75;;;;;;;;;;5082504;28;20059;-63
2023/11/28 08:37:29;;;;;;;13.23;7.80;;;;;;;;;;5082525;28;20087;-61
2023/11/28 08:39:55;;;;;;;12.38;7.22;;;;;;;;;;5080671;28;20060;-62
2023/11/28 08:42:21;;;;;;;13.20;8.02;;;;;;;;;;5077938;28;20028;-62
2023/11/28 08:44:47;;;;;;;13.52;8.77;;;;;;;;;;5074349;28;20044;-58
2023/11/28 08:47:13;;;;;;;12.90;7.43;;;;;;;;;;5066137;28;20024;-50
2023/11/28 08:49:42;;;;;;;12.88;7.47;;;;;;;;;;5051919;28;20542;-55
2023/11/28 08:52:10;;;;;;;13.90;8.50;;;;;;;;;;5064100;28;20025;-54
2023/11/28 08:54:36;;;;;;;13.07;7.78;;;;;;;;;;5072014;28;20013;-54
2023/11/28 08:57:02;;;;;;;13.20;7.90;;;;;;;;;;5071416;28;20036;-52
2023/11/28 08:59:28;;;;;;;13.77;8.38;;;;;;;;;;5068415;28;20051;-54
2023/11/28 09:01:55;;;;;;;13.23;7.80;;;;;;;;;;5049775;28;20119;-52
2023/11/28 09:04:21;;;;;;;13.82;8.82;;;;;;;;;;5051455;28;20025;-53
2023/11/28 09:06:47;;;;;;;13.48;8.27;;;;;;;;;;5050762;28;20132;-53
2023/11/28 09:09:14;;;;;;;13.80;8.75;;;;;;;;;;5051104;28;20052;-52
2023/11/28 09:11:40;;;;;;;13.30;7.95;;;;;;;;;;5050746;28;20429;-50
2023/11/28 09:14:06;;;;;;;13.10;7.90;;;;;;;;;;5051747;28;20039;-47
2023/11/28 09:16:33;;;;;;;13.25;7.85;;;;;;;;;;5054464;28;20079;-49
2023/11/28 09:18:59;;;;;;;14.18;8.75;;;;;;;;;;5070186;28;20481;-53
2023/11/28 09:21:25;;;;;;;13.43;8.40;;;;;;;;;;5071141;28;20108;-54
2023/11/28 09:23:51;;;;;;;13.27;8.10;;;;;;;;;;5065496;28;20021;-51
2023/11/28 09:26:17;;;;;;;14.00;8.80;;;;;;;;;;5052265;28;20475;-54
2023/11/28 09:28:43;;;;;;;13.38;8.10;;;;;;;;;;5050895;28;20021;-49
2023/11/28 09:31:09;;;;;;;13.20;7.90;;;;;;;;;;5065404;28;20153;-52
2023/11/28 09:33:35;;;;;;;13.73;8.52;;;;;;;;;;5071299;28;20039;-50
2023/11/28 09:36:02;;;;;;;14.98;8.32;;;;;;;;;;5070922;28;20020;-53
2023/11/28 09:38:27;;;;;;;13.23;7.78;;;;;;;;;;5069392;28;20520;-54
2023/11/28 09:40:54;;;;;;;13.70;8.57;;;;;;;;;;5070056;28;20024;-51
2023/11/28 09:43:26;;;;;;;13.00;7.63;;;;;;;;;;5066236;28;20090;-51
2023/11/28 09:45:55;;;;;;;13.35;7.90;;;;;;;;;;5071836;28;20028;-54
2023/11/28 09:48:22;;;;;;;13.68;8.27;;;;;;;;;;5070023;28;20037;-55
2023/11/28 09:50:50;;;;;;;13.30;7.80;;;;;;;;;;5070137;28;20044;-56
2023/11/28 09:53:17;;;;;;;12.88;7.50;;;;;;;;;;5069560;28;20017;-55
2023/11/28 09:55:43;;;;;;;12.57;7.30;;;;;;;;;;5069400;28;20084;-59
2023/11/28 09:58:09;;;;;;;12.50;7.30;;;;;;;;;;5066103;28;20161;-59
2023/11/28 10:00:36;;;;;;;12.82;7.43;;;;;;;;;;5050008;28;20041;-56
2023/11/28 10:03:03;;;;;;;12.70;7.40;;;;;;;;;;5049528;28;20028;-58
2023/11/28 10:05:29;;;;;;;14.73;8.40;;;;;;;;;;5050491;28;20116;-57
2023/11/28 10:07:56;;;;;;;12.90;7.63;;;;;;;;;;5049035;28;20452;-57
2023/11/28 10:10:22;;;;;;;14.70;8.70;;;;;;;;;;5048516;28;20495;-58
2023/11/28 10:12:50;;;;;;;13.00;7.60;;;;;;;;;;5050264;28;20025;-56
2023/11/28 10:15:17;;;;;;;12.93;7.57;;;;;;;;;;5049158;28;20022;-58
2023/11/28 10:17:43;;;;;;;12.40;7.22;;;;;;;;;;5053480;28;20092;-58
2023/11/28 10:20:10;;;;;;;13.82;8.55;;;;;;;;;;5070759;28;20090;-52
2023/11/28 10:22:39;;;;;;;13.20;7.78;;;;;;;;;;5069588;28;20037;-57
2023/11/28 10:25:10;;;;;;;12.70;7.43;;;;;;;;;;5069989;28;20020;-59
2023/11/28 10:27:48;;;;;;;13.10;7.60;;;;;;;;;;5069646;28;20471;-59
2023/11/28 10:30:24;;;;;;;12.90;7.50;;;;;;;;;;5067810;28;20107;-59
2023/11/28 10:32:50;;;;;;;13.50;7.80;;;;;;;;;;5069967;28;20095;-56
2023/11/28 10:35:16;;;;;;;13.15;7.75;;;;;;;;;;5069735;28;20394;-56
2023/11/28 10:37:43;;;;;;;13.63;8.05;;;;;;;;;;5070041;28;20020;-58
2023/11/28 10:40:19;;;;;;;12.35;7.20;;;;;;;;;;5067592;28;20040;-60
2023/11/28 10:42:45;;;;;;;13.30;8.10;;;;;;;;;;5068299;28;20028;-60
2023/11/28 10:45:13;;;;;;;12.80;7.47;;;;;;;;;;5066067;28;20490;-56
2023/11/28 10:47:39;;;;;;;13.00;7.55;;;;;;;;;;5066490;28;20114;-57
2023/11/28 10:50:07;;;;;;;14.05;8.35;;;;;;;;;;5066127;28;20684;-61
2023/11/28 10:52:36;;;;;;;13.77;8.18;;;;;;;;;;5067363;28;20020;-59
2023/11/28 10:55:05;;;;;;;12.80;7.45;;;;;;;;;;5067961;28;20443;-58
2023/11/28 10:57:32;;;;;;;12.13;7.10;;;;;;;;;;5068241;28;20028;-60
2023/11/28 11:00:02;;;;;;;12.35;7.15;;;;;;;;;;5067752;28;20099;-56
2023/11/28 11:02:29;;;;;;;13.07;7.72;;;;;;;;;;5068234;28;20020;-58
2023/11/28 11:04:55;;;;;;;12.07;7.00;;;;;;;;;;5069660;28;20169;-52
2023/11/28 11:07:21;;;;;;;12.88;7.55;;;;;;;;;;5069475;28;20027;-56
2023/11/28 11:09:48;;;;;;;12.80;7.50;;;;;;;;;;5069683;28;20076;-58
2023/11/28 11:12:15;;;;;;;12.68;7.32;;;;;;;;;;5069791;28;20386;-57
2023/11/28 11:14:48;;;;;;;12.77;7.50;;;;;;;;;;5069630;28;20029;-58
2023/11/28 11:17:26;;;;;;;12.30;7.20;;;;;;;;;;5069666;28;20033;-58
2023/11/28 11:19:54;;;;;;;13.00;8.07;;;;;;;;;;5069572;28;20032;-53
2023/11/28 11:22:21;;;;;;;12.65;7.63;;;;;;;;;;5069420;28;20085;-59
2023/11/28 11:24:48;;;;;;;12.45;7.30;;;;;;;;;;5069610;28;20120;-59
2023/11/28 11:27:18;;;;;;;12.70;7.35;;;;;;;;;;5069131;28;20082;-59
2023/11/28 11:29:45;;;;;;;12.77;7.43;;;;;;;;;;5068717;28;20016;-61
2023/11/28 11:32:18;;;;;;;13.02;8.18;;;;;;;;;;5067820;28;20031;-59
2023/11/28 11:34:48;;;;;;;13.45;8.15;;;;;;;;;;5069752;28;20027;-57
2023/11/28 11:37:18;;;;;;;12.50;7.30;;;;;;;;;;5066990;28;20107;-53
2023/11/28 11:39:47;;;;;;;13.00;7.75;;;;;;;;;;5068699;28;20029;-57
2023/11/28 11:42:17;;;;;;;13.07;7.70;;;;;;;;;;5068174;28;20021;-58
2023/11/28 11:44:47;;;;;;;12.65;7.38;;;;;;;;;;5069804;28;20094;-57
2023/11/28 11:47:18;;;;;;;13.00;7.80;;;;;;;;;;5069022;28;20108;-57
2023/11/28 11:49:45;;;;;;;12.55;7.32;;;;;;;;;;5070470;28;20494;-61
2023/11/28 11:52:13;;;;;;;12.30;7.20;;;;;;;;;;5072251;28;20024;-55
2023/11/28 11:54:39;;;;;;;13.00;7.60;;;;;;;;;;5073208;28;20040;-60
2023/11/28 11:57:05;;;;;;;13.38;8.18;;;;;;;;;;5073459;28;20048;-56
2023/11/28 11:59:31;;;;;;;13.15;7.65;;;;;;;;;;5073462;28;20035;-59
2023/11/28 12:01:58;;;;;;;12.50;7.40;;;;;;;;;;5063844;28;20044;-59
2023/11/28 12:04:27;;;;;;;14.70;8.63;;;;;;;;;;5053271;28;20083;-55
2023/11/28 12:07:07;;;;;;;12.52;7.30;;;;;;;;;;5052180;28;20532;-55
2023/11/28 12:09:34;;;;;;;12.43;7.20;;;;;;;;;;5052776;28;20025;-56
2023/11/28 12:12:00;;;;;;;12.52;7.28;;;;;;;;;;5052444;28;20103;-58
2023/11/28 12:14:26;;;;;;;12.18;7.07;;;;;;;;;;5053066;28;20461;-58
2023/11/28 12:16:53;;;;;;;12.73;7.38;;;;;;;;;;5053087;28;20032;-58
2023/11/28 12:19:19;;;;;;;14.75;7.30;;;;;;;;;;5055733;28;20020;-58
2023/11/28 12:21:46;;;;;;;11.70;6.80;;;;;;;;;;5065140;28;20474;-53
2023/11/28 12:24:12;;;;;;;12.45;7.38;;;;;;;;;;5066316;28;20120;-57
2023/11/28 12:26:40;;;;;;;11.73;6.82;;;;;;;;;;5058942;28;20506;-56
2023/11/28 12:29:06;;;;;;;12.25;7.15;;;;;;;;;;5060046;28;20065;-58
2023/11/28 12:31:34;;;;;;;12.02;7.03;;;;;;;;;;5064421;28;20028;-57
2023/11/28 12:34:00;;;;;;;11.70;6.83;;;;;;;;;;5071784;28;20021;-56
2023/11/28 12:36:27;;;;;;;11.52;6.78;;;;;;;;;;5071369;28;20028;-56
2023/11/28 12:38:57;;;;;;;11.73;6.90;;;;;;;;;;5071787;28;20033;-58
2023/11/28 12:41:34;;;;;;;12.32;7.18;;;;;;;;;;5071628;28;20413;-54
2023/11/28 12:44:00;;;;;;;11.48;6.78;;;;;;;;;;5071945;28;20050;-57
2023/11/28 12:46:26;;;;;;;13.25;8.07;;;;;;;;;;5072016;28;20104;-57
2023/11/28 12:48:52;;;;;;;12.10;7.07;;;;;;;;;;5071890;28;20115;-56
2023/11/28 12:51:18;;;;;;;12.10;7.03;;;;;;;;;;5070832;28;20024;-57
2023/11/28 12:53:46;;;;;;;12.10;7.07;;;;;;;;;;5071786;28;20028;-56
2023/11/28 12:56:12;;;;;;;11.60;7.10;;;;;;;;;;5071579;28;20538;-57
2023/11/28 12:58:38;;;;;;;12.02;7.10;;;;;;;;;;5071351;28;20135;-56
2023/11/28 13:01:04;;;;;;;12.30;7.45;;;;;;;;;;5060211;28;20442;-55
2023/11/28 13:03:32;;;;;;;11.73;6.80;;;;;;;;;;5059858;28;20021;-59
2023/11/28 13:05:59;;;;;;;12.68;7.63;;;;;;;;;;5060956;28;20047;-53
2023/11/28 13:08:25;;;;;;;11.70;6.80;;;;;;;;;;5061729;28;20080;-57
2023/11/28 13:10:51;;;;;;;11.85;7.00;;;;;;;;;;5059404;28;20096;-58
2023/11/28 13:13:17;;;;;;;11.80;6.88;;;;;;;;;;5060522;28;20080;-58
2023/11/28 13:15:43;;;;;;;11.48;6.70;;;;;;;;;;5061625;28;20683;-57
2023/11/28 13:18:09;;;;;;;11.68;6.80;;;;;;;;;;5060136;28;20076;-54
2023/11/28 13:20:35;;;;;;;11.73;6.80;;;;;;;;;;5060941;28;20029;-59
2023/11/28 13:23:01;;;;;;;11.60;6.80;;;;;;;;;;5058615;28;20095;-56
2023/11/28 13:25:27;;;;;;;12.18;7.30;;;;;;;;;;5051051;28;20405;-58
2023/11/28 13:27:53;;;;;;;11.20;6.60;;;;;;;;;;5050850;28;20041;-58
2023/11/28 13:30:19;;;;;;;11.50;6.70;;;;;;;;;;5050498;28;20032;-58
2023/11/28 13:32:45;;;;;;;11.70;7.20;;;;;;;;;;5050997;28;20029;-58
2023/11/28 13:35:12;;;;;;;11.07;6.50;;;;;;;;;;5053324;28;20033;-58
2023/11/28 13:37:38;;;;;;;11.48;6.68;;;;;;;;;;5060721;28;20073;-53
2023/11/28 13:40:04;;;;;;;11.07;6.60;;;;;;;;;;5057982;28;20036;-58
2023/11/28 13:42:31;;;;;;;11.05;6.47;;;;;;;;;;5053135;28;20405;-57
2023/11/28 13:44:57;;;;;;;11.18;6.57;;;;;;;;;;5061589;28;20415;-53
2023/11/28 13:47:23;;;;;;;11.50;6.78;;;;;;;;;;5062891;28;20094;-57
2023/11/28 13:49:51;;;;;;;12.60;7.30;;;;;;;;;;5048266;28;20147;-53
2023/11/28 13:52:17;;;;;;;12.75;7.40;;;;;;;;;;5049099;28;20021;-58
2023/11/28 13:54:43;;;;;;;12.85;7.60;;;;;;;;;;5050205;28;20035;-58
2023/11/28 13:57:09;;;;;;;11.60;6.80;;;;;;;;;;5050301;28;20024;-55
2023/11/28 13:59:35;;;;;;;11.77;6.90;;;;;;;;;;5050787;28;20025;-56
2023/11/28 14:02:02;;;;;;;11.80;6.90;;;;;;;;;;5050418;28;20051;-54
2023/11/28 14:04:28;;;;;;;12.63;7.35;;;;;;;;;;5050355;28;20025;-53
2023/11/28 14:06:54;;;;;;;12.35;7.15;;;;;;;;;;5050597;28;20031;-58
2023/11/28 14:09:22;;;;;;;12.75;7.80;;;;;;;;;;5049461;28;20479;-58
2023/11/28 14:11:48;;;;;;;12.30;7.10;;;;;;;;;;5048996;28;20021;-58
2023/11/28 14:14:14;;;;;;;12.20;7.22;;;;;;;;;;5050249;28;20090;-55
2023/11/28 14:16:40;;;;;;;11.80;6.88;;;;;;;;;;5049745;28;20526;-55
2023/11/28 14:19:06;;;;;;;12.55;7.30;;;;;;;;;;5048375;28;20033;-54
2023/11/28 14:21:34;;;;;;;12.80;7.40;;;;;;;;;;5049444;28;20673;-59